createdAt,value
2023-04-03T00:00:43.422Z,80.54
2023-04-03T00:01:43.464Z,80.84
2023-04-03T00:02:43.522Z,80.66
2023-04-03T00:03:43.139Z,80.78
2023-04-03T00:04:43.336Z,80.50
2023-04-03T00:05:43.155Z,80.58
2023-04-03T00:06:43.306Z,81.12
2023-04-03T00:07:43.321Z,81.04
2023-04-03T00:08:44.047Z,80.45
2023-04-03T00:09:43.294Z,80.53
2023-04-03T00:10:44.009Z,80.32
2023-04-03T00:11:43.274Z,80.62
2023-04-03T00:12:43.278Z,80.83
2023-04-03T00:13:43.208Z,80.58
2023-04-03T00:14:43.951Z,80.31
2023-04-03T00:15:43.211Z,80.72
2023-04-03T00:16:43.952Z,80.87
2023-04-03T00:17:43.235Z,80.68
2023-04-03T00:18:43.904Z,81.23
2023-04-03T00:19:43.162Z,80.93
2023-04-03T00:20:43.160Z,80.56
2023-04-03T00:21:43.855Z,81.16
2023-04-03T00:22:43.842Z,81.04
2023-04-03T00:23:43.846Z,81.05
2023-04-03T00:24:43.815Z,80.60
2023-04-03T00:25:43.645Z,80.26
2023-04-03T00:26:43.067Z,80.61
2023-04-03T00:27:43.069Z,80.12
2023-04-03T00:28:43.004Z,80.79
2023-04-03T00:29:43.038Z,80.79
2023-04-03T00:30:43.011Z,80.43
2023-04-03T00:31:42.987Z,80.43
2023-04-03T00:32:43.056Z,79.92
2023-04-03T00:33:42.994Z,79.58
2023-04-03T00:34:42.947Z,79.07
2023-04-03T00:35:43.051Z,79.27
2023-04-03T00:36:42.913Z,80.03
2023-04-03T00:37:42.910Z,79.77
2023-04-03T00:38:42.912Z,79.75
2023-04-03T00:39:42.891Z,79.47
2023-04-03T00:40:42.869Z,79.90
2023-04-03T00:41:42.872Z,79.65
2023-04-03T00:42:43.572Z,79.61
2023-04-03T00:43:43.556Z,79.56
2023-04-03T00:44:42.348Z,79.19
2023-04-03T00:45:42.806Z,78.84
2023-04-03T00:46:43.472Z,78.85
2023-04-03T00:47:43.504Z,78.23
2023-04-03T00:48:42.752Z,78.13
2023-04-03T00:49:42.757Z,78.01
2023-04-03T00:50:42.737Z,77.99
2023-04-03T00:51:42.727Z,78.41
2023-04-03T00:52:42.718Z,78.18
2023-04-03T00:53:42.703Z,78.11
2023-04-03T00:54:42.672Z,78.31
2023-04-03T00:55:42.699Z,78.09
2023-04-03T00:56:42.657Z,78.10
2023-04-03T00:57:42.637Z,78.32
2023-04-03T00:58:42.646Z,78.32
2023-04-03T00:59:42.591Z,78.62
2023-04-03T01:00:42.606Z,78.81
2023-04-03T01:01:42.660Z,78.97
2023-04-03T01:02:42.371Z,79.02
2023-04-03T01:03:42.557Z,79.17
2023-04-03T01:04:42.405Z,79.50
2023-04-03T01:05:42.527Z,79.53
2023-04-03T01:06:42.518Z,80.00
2023-04-03T01:07:42.570Z,79.78
2023-04-03T01:08:42.514Z,79.71
2023-04-03T01:09:43.164Z,80.14
2023-04-03T01:10:42.458Z,79.95
2023-04-03T01:11:43.142Z,80.27
2023-04-03T01:12:46.504Z,80.13
2023-04-03T01:13:42.423Z,80.05
2023-04-03T01:14:44.426Z,80.15
2023-04-03T01:15:42.468Z,80.97
2023-04-03T01:16:41.655Z,80.39
2023-04-03T01:17:42.410Z,80.65
2023-04-03T01:18:42.377Z,81.37
2023-04-03T01:19:42.321Z,81.62
2023-04-03T01:20:42.333Z,81.86
2023-04-03T01:21:42.338Z,81.75
2023-04-03T01:22:42.304Z,81.99
2023-04-03T01:23:42.292Z,81.90
2023-04-03T01:24:42.269Z,82.22
2023-04-03T01:25:42.260Z,82.03
2023-04-03T01:26:42.251Z,81.75
2023-04-03T01:27:42.257Z,82.09
2023-04-03T01:28:42.246Z,82.20
2023-04-03T01:29:42.193Z,82.35
2023-04-03T01:30:42.263Z,82.33
2023-04-03T01:31:42.233Z,82.59
2023-04-03T01:32:42.243Z,82.65
2023-04-03T01:33:42.179Z,82.58
2023-04-03T01:34:42.118Z,82.45
2023-04-03T01:35:42.136Z,82.55
2023-04-03T01:36:42.119Z,82.74
2023-04-03T01:37:42.098Z,82.94
2023-04-03T01:38:42.090Z,82.93
2023-04-03T01:39:42.055Z,82.78
2023-04-03T01:40:42.747Z,82.93
2023-04-03T01:41:42.049Z,82.74
2023-04-03T01:42:42.057Z,82.74
2023-04-03T01:43:42.024Z,82.89
2023-04-03T01:44:42.039Z,82.77
2023-04-03T01:45:42.043Z,83.76
2023-04-03T01:46:42.660Z,83.35
2023-04-03T01:47:42.030Z,83.36
2023-04-03T01:48:41.977Z,83.60
2023-04-03T01:49:41.932Z,83.36
2023-04-03T01:50:42.594Z,83.40
2023-04-03T01:51:41.934Z,83.29
2023-04-03T01:52:42.577Z,83.50
2023-04-03T01:53:42.624Z,84.28
2023-04-03T01:54:41.892Z,84.03
2023-04-03T01:55:41.858Z,84.14
2023-04-03T01:56:41.850Z,84.23
2023-04-03T01:57:41.844Z,84.13
2023-04-03T01:58:41.821Z,84.25
2023-04-03T01:59:41.790Z,84.14
2023-04-03T02:00:41.793Z,84.18
2023-04-03T02:01:41.896Z,84.30
2023-04-03T02:02:41.832Z,84.71
2023-04-03T02:03:41.761Z,84.76
2023-04-03T02:04:41.463Z,85.07
2023-04-03T02:05:41.708Z,85.10
2023-04-03T02:06:41.710Z,85.23
2023-04-03T02:07:41.699Z,85.54
2023-04-03T02:08:41.679Z,85.66
2023-04-03T02:09:41.672Z,85.90
2023-04-03T02:10:41.630Z,85.92
2023-04-03T02:11:42.328Z,86.09
2023-04-03T02:12:41.628Z,86.10
2023-04-03T02:13:41.632Z,86.21
2023-04-03T02:14:41.408Z,85.93
2023-04-03T02:15:41.571Z,85.99
2023-04-03T02:16:42.378Z,86.28
2023-04-03T02:17:41.599Z,86.49
2023-04-03T02:18:41.562Z,86.76
2023-04-03T02:19:41.539Z,87.08
2023-04-03T02:20:41.410Z,86.97
2023-04-03T02:21:41.137Z,87.09
2023-04-03T02:22:41.508Z,87.63
2023-04-03T02:23:41.476Z,87.83
2023-04-03T02:24:41.464Z,87.93
2023-04-03T02:25:41.433Z,87.95
2023-04-03T02:26:41.441Z,87.85
2023-04-03T02:27:42.126Z,88.38
2023-04-03T02:28:41.412Z,88.51
2023-04-03T02:29:41.413Z,88.26
2023-04-03T02:30:42.169Z,88.39
2023-04-03T02:31:41.142Z,88.41
2023-04-03T02:32:42.179Z,88.64
2023-04-03T02:33:41.146Z,89.09
2023-04-03T02:34:42.074Z,89.27
2023-04-03T02:35:42.892Z,89.58
2023-04-03T02:36:41.308Z,89.71
2023-04-03T02:37:41.144Z,89.76
2023-04-03T02:38:42.057Z,89.55
2023-04-03T02:39:41.266Z,89.61
2023-04-03T02:40:41.989Z,89.46
2023-04-03T02:41:41.242Z,89.71
2023-04-03T02:42:41.946Z,89.75
2023-04-03T02:43:41.228Z,89.59
2023-04-03T02:44:41.945Z,89.43
2023-04-03T02:45:41.165Z,89.27
2023-04-03T02:46:41.181Z,88.62
2023-04-03T02:47:41.194Z,88.48
2023-04-03T02:48:41.146Z,88.41
2023-04-03T02:49:41.134Z,88.32
2023-04-03T02:50:41.827Z,88.59
2023-04-03T02:51:41.026Z,88.60
2023-04-03T02:52:41.105Z,88.79
2023-04-03T02:53:41.102Z,88.34
2023-04-03T02:54:41.069Z,87.78
2023-04-03T02:55:41.030Z,87.73
2023-04-03T02:56:41.060Z,87.67
2023-04-03T02:57:41.028Z,87.78
2023-04-03T02:58:41.727Z,87.88
2023-04-03T02:59:41.012Z,87.73
2023-04-03T03:00:40.976Z,87.08
2023-04-03T03:01:41.059Z,86.82
2023-04-03T03:02:40.996Z,87.09
2023-04-03T03:03:40.956Z,87.29
2023-04-03T03:04:40.982Z,87.58
2023-04-03T03:05:41.661Z,87.35
2023-04-03T03:06:41.886Z,87.32
2023-04-03T03:07:40.922Z,87.51
2023-04-03T03:08:40.883Z,88.01
2023-04-03T03:09:41.555Z,87.71
2023-04-03T03:10:40.827Z,87.41
2023-04-03T03:11:40.846Z,87.28
2023-04-03T03:12:40.829Z,87.42
2023-04-03T03:13:40.836Z,87.14
2023-04-03T03:14:40.802Z,87.19
2023-04-03T03:15:40.785Z,87.22
2023-04-03T03:16:40.830Z,87.22
2023-04-03T03:17:40.761Z,87.29
2023-04-03T03:18:40.750Z,87.72
2023-04-03T03:19:40.744Z,88.05
2023-04-03T03:20:40.724Z,88.04
2023-04-03T03:21:40.724Z,88.05
2023-04-03T03:22:40.672Z,88.09
2023-04-03T03:23:40.679Z,88.20
2023-04-03T03:24:40.450Z,88.36
2023-04-03T03:25:40.090Z,88.78
2023-04-03T03:26:40.639Z,88.90
2023-04-03T03:27:40.609Z,88.50
2023-04-03T03:28:39.913Z,88.21
2023-04-03T03:29:40.601Z,88.30
2023-04-03T03:30:41.257Z,88.75
2023-04-03T03:31:40.598Z,88.72
2023-04-03T03:32:40.653Z,88.64
2023-04-03T03:33:39.933Z,88.23
2023-04-03T03:34:40.537Z,87.90
2023-04-03T03:35:40.628Z,87.50
2023-04-03T03:36:40.529Z,87.35
2023-04-03T03:37:40.471Z,87.30
2023-04-03T03:38:40.518Z,87.50
2023-04-03T03:39:40.477Z,87.57
2023-04-03T03:40:39.719Z,87.72
2023-04-03T03:41:39.900Z,87.29
2023-04-03T03:42:40.467Z,87.19
2023-04-03T03:43:40.421Z,87.20
2023-04-03T03:44:40.396Z,87.43
2023-04-03T03:45:40.393Z,87.36
2023-04-03T03:46:40.471Z,87.39
2023-04-03T03:47:40.360Z,87.43
2023-04-03T03:48:40.377Z,87.71
2023-04-03T03:49:40.350Z,87.48
2023-04-03T03:50:40.317Z,87.43
2023-04-03T03:51:40.326Z,87.51
2023-04-03T03:52:40.264Z,87.62
2023-04-03T03:53:40.282Z,87.62
2023-04-03T03:54:40.302Z,87.57
2023-04-03T03:55:40.498Z,87.81
2023-04-03T03:56:40.918Z,87.88
2023-04-03T03:57:39.526Z,87.99
2023-04-03T03:58:40.219Z,88.33
2023-04-03T03:59:40.203Z,88.41
2023-04-03T04:00:40.188Z,88.38
2023-04-03T04:01:40.213Z,88.48
2023-04-03T04:02:40.210Z,88.62
2023-04-03T04:03:40.314Z,88.55
2023-04-03T04:04:40.137Z,88.66
2023-04-03T04:05:40.346Z,89.21
2023-04-03T04:06:40.108Z,89.24
2023-04-03T04:07:40.072Z,89.51
2023-04-03T04:08:40.754Z,89.79
2023-04-03T04:09:40.786Z,89.74
2023-04-03T04:10:40.064Z,89.70
2023-04-03T04:11:40.062Z,89.79
2023-04-03T04:12:40.720Z,89.67
2023-04-03T04:13:39.516Z,89.56
2023-04-03T04:14:39.999Z,89.32
2023-04-03T04:15:40.279Z,89.21
2023-04-03T04:16:40.015Z,88.94
2023-04-03T04:17:40.712Z,88.56
2023-04-03T04:18:40.177Z,88.61
2023-04-03T04:19:39.945Z,88.54
2023-04-03T04:20:39.917Z,88.86
2023-04-03T04:21:39.911Z,89.01
2023-04-03T04:22:40.618Z,89.31
2023-04-03T04:23:40.564Z,89.36
2023-04-03T04:24:40.040Z,89.51
2023-04-03T04:25:39.864Z,89.39
2023-04-03T04:26:39.858Z,89.19
2023-04-03T04:27:39.807Z,89.21
2023-04-03T04:28:40.493Z,89.17
2023-04-03T04:29:39.076Z,89.08
2023-04-03T04:30:39.816Z,89.04
2023-04-03T04:31:39.771Z,88.93
2023-04-03T04:32:39.454Z,88.79
2023-04-03T04:33:39.773Z,88.96
2023-04-03T04:34:39.495Z,88.99
2023-04-03T04:35:39.956Z,89.22
2023-04-03T04:36:39.767Z,89.35
2023-04-03T04:37:39.524Z,89.21
2023-04-03T04:38:39.675Z,89.11
2023-04-03T04:39:39.679Z,89.09
2023-04-03T04:40:39.651Z,88.93
2023-04-03T04:41:39.636Z,89.12
2023-04-03T04:42:39.613Z,89.19
2023-04-03T04:43:38.992Z,89.19
2023-04-03T04:44:39.600Z,89.30
2023-04-03T04:45:39.298Z,89.27
2023-04-03T04:46:39.658Z,89.39
2023-04-03T04:47:40.299Z,89.45
2023-04-03T04:48:39.247Z,89.60
2023-04-03T04:49:40.522Z,89.79
2023-04-03T04:50:40.243Z,89.95
2023-04-03T04:51:50.952Z,90.05
2023-04-03T04:52:40.470Z,90.21
2023-04-03T04:53:39.549Z,90.37
2023-04-03T04:54:39.482Z,90.61
2023-04-03T04:55:40.197Z,90.59
2023-04-03T04:56:40.165Z,90.81
2023-04-03T04:57:40.277Z,90.93
2023-04-03T04:58:39.631Z,90.89
2023-04-03T04:59:39.421Z,90.88
2023-04-03T05:00:40.129Z,90.97
2023-04-03T05:01:40.259Z,90.88
2023-04-03T05:02:40.171Z,90.87
2023-04-03T05:03:39.166Z,90.82
2023-04-03T05:04:40.111Z,90.78
2023-04-03T05:05:40.307Z,90.67
2023-04-03T05:06:39.323Z,90.52
2023-04-03T05:07:39.290Z,90.59
2023-04-03T05:08:39.305Z,90.59
2023-04-03T05:09:39.287Z,90.64
2023-04-03T05:10:39.249Z,90.39
2023-04-03T05:11:39.929Z,90.29
2023-04-03T05:12:39.236Z,90.33
2023-04-03T05:13:39.193Z,90.46
2023-04-03T05:14:39.237Z,90.45
2023-04-03T05:15:40.160Z,90.27
2023-04-03T05:16:39.173Z,89.97
2023-04-03T05:17:39.251Z,90.01
2023-04-03T05:18:39.155Z,89.92
2023-04-03T05:19:39.806Z,89.97
2023-04-03T05:20:39.157Z,90.01
2023-04-03T05:21:39.131Z,90.02
2023-04-03T05:22:39.767Z,89.54
2023-04-03T05:23:39.765Z,89.11
2023-04-03T05:24:39.067Z,89.26
2023-04-03T05:25:39.241Z,89.27
2023-04-03T05:26:39.724Z,89.39
2023-04-03T05:27:39.025Z,89.57
2023-04-03T05:28:39.721Z,89.65
2023-04-03T05:29:39.004Z,89.54
2023-04-03T05:30:39.031Z,89.52
2023-04-03T05:31:39.041Z,89.53
2023-04-03T05:32:39.730Z,89.43
2023-04-03T05:33:38.947Z,89.35
2023-04-03T05:34:38.940Z,89.35
2023-04-03T05:35:39.069Z,89.24
2023-04-03T05:36:38.918Z,89.19
2023-04-03T05:37:39.055Z,89.38
2023-04-03T05:38:38.896Z,89.17
2023-04-03T05:39:38.160Z,89.43
2023-04-03T05:40:38.846Z,89.28
2023-04-03T05:41:38.840Z,89.08
2023-04-03T05:42:38.833Z,88.89
2023-04-03T05:43:38.803Z,88.98
2023-04-03T05:44:38.562Z,88.95
2023-04-03T05:45:38.639Z,88.82
2023-04-03T05:46:38.566Z,89.05
2023-04-03T05:47:38.059Z,88.79
2023-04-03T05:48:38.050Z,88.98
2023-04-03T05:49:38.000Z,88.39
2023-04-03T05:50:38.716Z,88.01
2023-04-03T05:51:38.709Z,87.79
2023-04-03T05:52:38.007Z,88.05
2023-04-03T05:53:38.705Z,87.97
2023-04-03T05:54:38.674Z,88.20
2023-04-03T05:55:38.284Z,87.77
2023-04-03T05:56:37.924Z,87.66
2023-04-03T05:57:38.737Z,87.74
2023-04-03T05:58:38.585Z,87.88
2023-04-03T05:59:38.593Z,87.75
2023-04-03T06:00:39.311Z,87.45
2023-04-03T06:01:38.562Z,87.21
2023-04-03T06:02:38.664Z,87.33
2023-04-03T06:03:38.731Z,87.40
2023-04-03T06:04:37.979Z,87.51
2023-04-03T06:05:39.534Z,87.23
2023-04-03T06:06:38.552Z,87.46
2023-04-03T06:07:38.482Z,87.55
2023-04-03T06:08:38.553Z,87.52
2023-04-03T06:09:38.587Z,87.04
2023-04-03T06:10:38.705Z,86.77
2023-04-03T06:11:38.449Z,86.59
2023-04-03T06:12:38.416Z,86.29
2023-04-03T06:13:38.375Z,86.16
2023-04-03T06:14:38.399Z,85.85
2023-04-03T06:15:38.380Z,85.55
2023-04-03T06:16:39.681Z,85.40
2023-04-03T06:17:38.383Z,85.53
2023-04-03T06:18:38.326Z,85.40
2023-04-03T06:19:38.332Z,85.40
2023-04-03T06:20:38.711Z,85.63
2023-04-03T06:21:38.977Z,85.74
2023-04-03T06:22:38.307Z,85.45
2023-04-03T06:23:38.983Z,85.38
2023-04-03T06:24:38.265Z,85.20
2023-04-03T06:25:38.314Z,85.29
2023-04-03T06:26:38.271Z,85.14
2023-04-03T06:27:37.490Z,85.57
2023-04-03T06:28:38.207Z,85.09
2023-04-03T06:29:38.214Z,85.00
2023-04-03T06:30:39.240Z,84.94
2023-04-03T06:31:38.204Z,84.79
2023-04-03T06:32:38.225Z,84.50
2023-04-03T06:33:38.118Z,84.51
2023-04-03T06:34:38.148Z,84.53
2023-04-03T06:35:37.470Z,84.87
2023-04-03T06:36:37.626Z,84.80
2023-04-03T06:37:38.117Z,84.80
2023-04-03T06:38:38.045Z,84.51
2023-04-03T06:39:38.056Z,84.29
2023-04-03T06:40:38.235Z,84.27
2023-04-03T06:41:38.028Z,84.18
2023-04-03T06:42:37.349Z,83.71
2023-04-03T06:43:37.996Z,83.70
2023-04-03T06:44:38.011Z,83.59
2023-04-03T06:45:38.153Z,83.90
2023-04-03T06:46:38.883Z,83.99
2023-04-03T06:47:37.974Z,83.70
2023-04-03T06:48:37.915Z,83.67
2023-04-03T06:49:37.934Z,83.71
2023-04-03T06:50:37.906Z,83.60
2023-04-03T06:51:37.910Z,83.43
2023-04-03T06:52:37.888Z,83.82
2023-04-03T06:53:37.853Z,83.78
2023-04-03T06:54:37.863Z,83.40
2023-04-03T06:55:37.983Z,83.09
2023-04-03T06:56:37.604Z,83.29
2023-04-03T06:57:37.844Z,82.92
2023-04-03T06:58:38.509Z,82.61
2023-04-03T06:59:37.724Z,82.40
2023-04-03T07:00:37.627Z,82.50
2023-04-03T07:01:38.495Z,82.63
2023-04-03T07:02:38.199Z,82.13
2023-04-03T07:03:37.737Z,82.17
2023-04-03T07:04:37.765Z,81.93
2023-04-03T07:05:37.997Z,81.28
2023-04-03T07:06:37.708Z,81.24
2023-04-03T07:07:38.410Z,80.95
2023-04-03T07:08:37.627Z,80.86
2023-04-03T07:09:37.674Z,80.74
2023-04-03T07:10:37.649Z,80.74
2023-04-03T07:11:38.366Z,80.76
2023-04-03T07:12:38.361Z,80.83
2023-04-03T07:13:38.353Z,80.32
2023-04-03T07:14:37.638Z,80.49
2023-04-03T07:15:38.398Z,79.51
2023-04-03T07:16:40.748Z,77.88
2023-04-03T07:17:38.308Z,77.87
2023-04-03T07:18:38.307Z,77.89
2023-04-03T07:19:38.256Z,78.27
2023-04-03T07:20:38.353Z,78.72
2023-04-03T07:21:38.234Z,79.03
2023-04-03T07:22:38.227Z,79.39
2023-04-03T07:23:38.206Z,78.48
2023-04-03T07:24:37.497Z,76.87
2023-04-03T07:25:37.623Z,74.63
2023-04-03T07:26:37.430Z,73.23
2023-04-03T07:27:37.413Z,72.02
2023-04-03T07:28:37.462Z,70.67
2023-04-03T07:29:37.434Z,70.52
2023-04-03T07:30:37.382Z,70.06
2023-04-03T07:31:37.406Z,68.68
2023-04-03T07:32:37.375Z,69.94
2023-04-03T07:33:37.356Z,70.05
2023-04-03T07:34:37.332Z,69.05
2023-04-03T07:35:38.495Z,69.25
2023-04-03T07:36:37.306Z,69.40
2023-04-03T07:37:37.258Z,67.98
2023-04-03T07:38:37.285Z,67.26
2023-04-03T07:39:37.255Z,67.03
2023-04-03T07:40:37.247Z,65.76
2023-04-03T07:41:37.922Z,65.07
2023-04-03T07:42:37.188Z,64.52
2023-04-03T07:43:37.199Z,64.08
2023-04-03T07:44:37.188Z,63.88
2023-04-03T07:45:37.483Z,64.12
2023-04-03T07:46:37.878Z,63.49
2023-04-03T07:47:37.166Z,63.64
2023-04-03T07:48:37.162Z,63.65
2023-04-03T07:49:37.109Z,64.04
2023-04-03T07:50:37.797Z,64.13
2023-04-03T07:51:37.078Z,64.14
2023-04-03T07:52:37.093Z,64.51
2023-04-03T07:53:37.101Z,64.75
2023-04-03T07:54:37.063Z,65.67
2023-04-03T07:55:37.260Z,66.19
2023-04-03T07:56:37.704Z,67.52
2023-04-03T07:57:37.045Z,67.39
2023-04-03T07:58:36.993Z,65.94
2023-04-03T07:59:36.972Z,66.19
2023-04-03T08:00:36.965Z,66.42
2023-04-03T08:01:36.948Z,65.29
2023-04-03T08:02:37.640Z,64.54
2023-04-03T08:03:36.730Z,64.72
2023-04-03T08:04:36.755Z,64.79
2023-04-03T08:05:36.910Z,65.00
2023-04-03T08:06:45.954Z,65.22
2023-04-03T08:07:37.696Z,63.42
2023-04-03T08:08:36.853Z,62.97
2023-04-03T08:09:36.121Z,61.90
2023-04-03T08:10:36.130Z,60.88
2023-04-03T08:11:36.120Z,59.65
2023-04-03T08:12:36.121Z,60.65
2023-04-03T08:13:36.780Z,60.55
2023-04-03T08:14:36.823Z,60.58
2023-04-03T08:15:36.911Z,61.82
2023-04-03T08:16:36.789Z,62.86
2023-04-03T08:17:36.115Z,62.28
2023-04-03T08:18:36.694Z,62.15
2023-04-03T08:19:36.072Z,61.51
2023-04-03T08:20:36.682Z,61.28
2023-04-03T08:21:36.669Z,58.89
2023-04-03T08:22:36.668Z,59.45
2023-04-03T08:23:36.639Z,58.49
2023-04-03T08:24:39.114Z,58.26
2023-04-03T08:25:37.485Z,58.31
2023-04-03T08:26:36.610Z,56.82
2023-04-03T08:27:36.610Z,55.98
2023-04-03T08:28:36.556Z,55.51
2023-04-03T08:29:36.632Z,54.28
2023-04-03T08:30:36.557Z,54.84
2023-04-03T08:31:36.566Z,56.37
2023-04-03T08:32:36.543Z,56.21
2023-04-03T08:33:36.493Z,55.22
2023-04-03T08:34:36.498Z,55.69
2023-04-03T08:35:38.140Z,55.65
2023-04-03T08:36:36.659Z,54.81
2023-04-03T08:37:36.447Z,55.81
2023-04-03T08:38:37.245Z,55.61
2023-04-03T08:39:36.155Z,55.79
2023-04-03T08:40:37.098Z,57.11
2023-04-03T08:41:36.389Z,56.29
2023-04-03T08:42:37.056Z,56.48
2023-04-03T08:43:36.367Z,54.06
2023-04-03T08:44:37.388Z,55.16
2023-04-03T08:45:36.553Z,58.64
2023-04-03T08:46:36.334Z,58.60
2023-04-03T08:47:36.618Z,57.37
2023-04-03T08:48:37.029Z,56.76
2023-04-03T08:49:36.375Z,55.04
2023-04-03T08:50:36.445Z,53.17
2023-04-03T08:51:36.262Z,52.65
2023-04-03T08:52:36.275Z,50.33
2023-04-03T08:53:36.225Z,48.52
2023-04-03T08:54:36.214Z,49.54
2023-04-03T08:55:37.062Z,49.50
2023-04-03T08:56:36.410Z,50.24
2023-04-03T08:57:36.353Z,49.69
2023-04-03T08:58:35.663Z,50.28
2023-04-03T08:59:36.816Z,50.68
2023-04-03T09:00:35.724Z,49.67
2023-04-03T09:01:36.209Z,49.68
2023-04-03T09:02:36.202Z,49.67
2023-04-03T09:03:36.108Z,50.49
2023-04-03T09:04:36.067Z,50.09
2023-04-03T09:05:36.191Z,48.87
2023-04-03T09:06:37.693Z,50.50
2023-04-03T09:07:36.055Z,51.81
2023-04-03T09:08:36.018Z,51.25
2023-04-03T09:09:36.035Z,48.53
2023-04-03T09:10:36.187Z,48.85
2023-04-03T09:11:36.023Z,53.10
2023-04-03T09:12:35.976Z,53.90
2023-04-03T09:13:35.667Z,52.90
2023-04-03T09:14:35.644Z,51.53
2023-04-03T09:15:39.142Z,52.16
2023-04-03T09:16:35.691Z,51.36
2023-04-03T09:17:35.992Z,51.15
2023-04-03T09:18:35.869Z,49.89
2023-04-03T09:19:35.911Z,49.25
2023-04-03T09:20:36.097Z,47.85
2023-04-03T09:21:35.757Z,49.92
2023-04-03T09:22:39.286Z,51.26
2023-04-03T09:23:36.811Z,51.88
2023-04-03T09:24:35.095Z,50.50
2023-04-03T09:25:35.198Z,49.94
2023-04-03T09:26:35.783Z,48.94
2023-04-03T09:27:35.788Z,52.10
2023-04-03T09:28:42.879Z,51.80
2023-04-03T09:29:37.461Z,51.14
2023-04-03T09:30:35.850Z,50.71
2023-04-03T09:31:36.454Z,49.15
2023-04-03T09:32:36.459Z,49.66
2023-04-03T09:33:36.402Z,48.73
2023-04-03T09:34:36.417Z,48.17
2023-04-03T09:35:47.388Z,50.72
2023-04-03T09:36:36.651Z,50.22
2023-04-03T09:37:36.328Z,49.70
2023-04-03T09:38:35.624Z,47.06
2023-04-03T09:39:36.347Z,48.83
2023-04-03T09:40:36.682Z,48.48
2023-04-03T09:41:35.559Z,48.66
2023-04-03T09:42:36.278Z,48.92
2023-04-03T09:43:35.538Z,50.06
2023-04-03T09:44:36.274Z,52.53
2023-04-03T09:45:35.513Z,53.96
2023-04-03T09:46:35.543Z,53.75
2023-04-03T09:47:35.502Z,54.49
2023-04-03T09:48:35.480Z,56.09
2023-04-03T09:49:35.440Z,56.66
2023-04-03T09:50:36.332Z,56.78
2023-04-03T09:51:35.416Z,57.03
2023-04-03T09:52:36.933Z,56.90
2023-04-03T09:53:35.386Z,56.60
2023-04-03T09:54:34.656Z,57.43
2023-04-03T09:55:35.349Z,55.58
2023-04-03T09:56:35.348Z,53.87
2023-04-03T09:57:35.444Z,51.86
2023-04-03T09:58:46.806Z,51.18
2023-04-03T09:59:36.331Z,50.51
2023-04-03T10:00:35.283Z,51.24
2023-04-03T10:01:35.344Z,51.11
2023-04-03T10:02:35.344Z,51.03
2023-04-03T10:03:35.252Z,51.33
2023-04-03T10:04:35.324Z,52.72
2023-04-03T10:05:35.210Z,52.37
2023-04-03T10:06:35.278Z,52.61
2023-04-03T10:07:35.195Z,52.79
2023-04-03T10:08:35.184Z,51.67
2023-04-03T10:09:35.244Z,51.69
2023-04-03T10:10:35.185Z,53.46
2023-04-03T10:11:35.194Z,53.66
2023-04-03T10:12:35.139Z,54.78
2023-04-03T10:13:45.204Z,54.98
2023-04-03T10:14:36.100Z,53.76
2023-04-03T10:15:35.059Z,54.62
2023-04-03T10:16:35.149Z,55.30
2023-04-03T10:17:35.073Z,56.06
2023-04-03T10:18:35.109Z,56.72
2023-04-03T10:19:35.033Z,57.67
2023-04-03T10:20:34.980Z,54.14
2023-04-03T10:21:34.811Z,54.57
2023-04-03T10:22:35.666Z,53.57
2023-04-03T10:23:34.254Z,55.16
2023-04-03T10:24:34.967Z,55.64
2023-04-03T10:25:34.926Z,56.09
2023-04-03T10:26:34.228Z,56.80
2023-04-03T10:27:34.303Z,55.61
2023-04-03T10:28:34.902Z,56.28
2023-04-03T10:29:34.886Z,56.30
2023-04-03T10:30:34.997Z,58.03
2023-04-03T10:31:34.274Z,58.30
2023-04-03T10:32:34.867Z,58.16
2023-04-03T10:33:34.835Z,54.73
2023-04-03T10:34:34.233Z,52.61
2023-04-03T10:35:34.805Z,52.72
2023-04-03T10:36:34.813Z,53.49
2023-04-03T10:37:35.006Z,53.37
2023-04-03T10:38:34.769Z,54.02
2023-04-03T10:39:34.135Z,53.09
2023-04-03T10:40:34.716Z,51.55
2023-04-03T10:41:34.723Z,48.64
2023-04-03T10:42:34.706Z,47.39
2023-04-03T10:43:34.708Z,47.41
2023-04-03T10:44:34.673Z,49.26
2023-04-03T10:45:35.349Z,51.35
2023-04-03T10:46:35.500Z,52.03
2023-04-03T10:47:37.247Z,52.45
2023-04-03T10:48:34.629Z,52.89
2023-04-03T10:49:34.615Z,54.41
2023-04-03T10:50:34.564Z,54.62
2023-04-03T10:51:34.583Z,55.10
2023-04-03T10:52:34.575Z,55.68
2023-04-03T10:53:34.555Z,55.25
2023-04-03T10:54:35.212Z,54.38
2023-04-03T10:55:34.258Z,54.73
2023-04-03T10:56:34.483Z,54.34
2023-04-03T10:57:34.563Z,54.95
2023-04-03T10:58:34.487Z,55.78
2023-04-03T10:59:34.523Z,56.41
2023-04-03T11:00:34.475Z,57.50
2023-04-03T11:01:34.496Z,56.80
2023-04-03T11:02:34.516Z,53.99
2023-04-03T11:03:34.544Z,50.93
2023-04-03T11:04:34.406Z,51.42
2023-04-03T11:05:35.065Z,53.67
2023-04-03T11:06:34.344Z,53.88
2023-04-03T11:07:34.357Z,54.53
2023-04-03T11:08:34.431Z,55.19
2023-04-03T11:09:34.346Z,56.81
2023-04-03T11:10:34.993Z,56.02
2023-04-03T11:11:34.288Z,56.00
2023-04-03T11:12:34.285Z,55.47
2023-04-03T11:13:34.278Z,53.69
2023-04-03T11:14:34.506Z,52.93
2023-04-03T11:15:33.827Z,53.63
2023-04-03T11:16:43.358Z,54.19
2023-04-03T11:17:35.338Z,53.79
2023-04-03T11:18:34.907Z,52.97
2023-04-03T11:19:34.198Z,53.82
2023-04-03T11:20:34.915Z,54.18
2023-04-03T11:21:33.954Z,55.25
2023-04-03T11:22:34.138Z,55.14
2023-04-03T11:23:45.782Z,54.88
2023-04-03T11:24:35.124Z,55.25
2023-04-03T11:25:34.124Z,56.12
2023-04-03T11:26:34.116Z,56.19
2023-04-03T11:27:34.065Z,55.56
2023-04-03T11:28:34.069Z,55.20
2023-04-03T11:29:35.805Z,55.21
2023-04-03T11:30:33.714Z,55.13
2023-04-03T11:31:34.737Z,54.93
2023-04-03T11:32:34.730Z,54.83
2023-04-03T11:33:34.006Z,53.72
2023-04-03T11:34:33.981Z,52.08
2023-04-03T11:35:33.786Z,50.62
2023-04-03T11:36:34.783Z,50.05
2023-04-03T11:37:33.227Z,50.53
2023-04-03T11:38:33.931Z,52.46
2023-04-03T11:39:33.925Z,52.82
2023-04-03T11:40:33.169Z,53.09
2023-04-03T11:41:33.887Z,52.60
2023-04-03T11:42:34.716Z,53.44
2023-04-03T11:43:33.854Z,53.17
2023-04-03T11:44:33.852Z,53.71
2023-04-03T11:45:34.595Z,54.33
2023-04-03T11:46:33.300Z,52.04
2023-04-03T11:47:33.822Z,51.49
2023-04-03T11:48:34.582Z,51.03
2023-04-03T11:49:34.513Z,51.90
2023-04-03T11:50:34.503Z,52.30
2023-04-03T11:51:34.480Z,52.31
2023-04-03T11:52:34.473Z,51.37
2023-04-03T11:53:34.435Z,52.19
2023-04-03T11:54:38.612Z,52.92
2023-04-03T11:55:34.821Z,52.61
2023-04-03T11:56:34.430Z,52.37
2023-04-03T11:57:34.490Z,50.37
2023-04-03T11:58:34.376Z,49.20
2023-04-03T11:59:33.634Z,47.44
2023-04-03T12:00:33.658Z,47.49
2023-04-03T12:01:33.616Z,49.36
2023-04-03T12:02:38.554Z,51.21
2023-04-03T12:03:34.668Z,50.49
2023-04-03T12:04:33.612Z,49.28
2023-04-03T12:05:33.564Z,47.59
2023-04-03T12:06:33.597Z,48.31
2023-04-03T12:07:33.403Z,49.70
2023-04-03T12:08:33.512Z,49.97
2023-04-03T12:09:33.510Z,48.86
2023-04-03T12:10:34.156Z,47.47
2023-04-03T12:11:33.138Z,46.36
2023-04-03T12:12:33.457Z,45.78
2023-04-03T12:13:33.450Z,45.98
2023-04-03T12:14:32.811Z,46.50
2023-04-03T12:15:33.420Z,46.38
2023-04-03T12:16:34.103Z,46.92
2023-04-03T12:17:33.398Z,46.74
2023-04-03T12:18:32.653Z,46.38
2023-04-03T12:19:42.349Z,46.07
2023-04-03T12:20:33.664Z,45.98
2023-04-03T12:21:33.339Z,48.07
2023-04-03T12:22:33.317Z,49.14
2023-04-03T12:23:33.313Z,50.55
2023-04-03T12:24:33.301Z,51.27
2023-04-03T12:25:33.282Z,51.87
2023-04-03T12:26:42.127Z,52.61
2023-04-03T12:27:34.245Z,52.31
2023-04-03T12:28:33.202Z,53.21
2023-04-03T12:29:33.909Z,51.80
2023-04-03T12:30:33.882Z,49.77
2023-04-03T12:31:33.271Z,46.95
2023-04-03T12:32:33.199Z,45.83
2023-04-03T12:33:33.234Z,45.11
2023-04-03T12:34:33.175Z,44.61
2023-04-03T12:35:32.931Z,44.28
2023-04-03T12:36:32.894Z,44.75
2023-04-03T12:37:32.887Z,43.94
2023-04-03T12:38:33.106Z,46.41
2023-04-03T12:39:33.363Z,46.54
2023-04-03T12:40:33.069Z,48.22
2023-04-03T12:41:33.079Z,49.47
2023-04-03T12:42:32.337Z,51.05
2023-04-03T12:43:32.336Z,52.21
2023-04-03T12:44:32.995Z,52.10
2023-04-03T12:45:33.050Z,51.70
2023-04-03T12:46:32.431Z,51.17
2023-04-03T12:47:33.024Z,52.20
2023-04-03T12:48:32.918Z,51.54
2023-04-03T12:49:32.918Z,51.96
2023-04-03T12:50:32.348Z,51.96
2023-04-03T12:51:32.359Z,50.13
2023-04-03T12:52:32.913Z,48.87